Time;durP1;ratioP1;P1;durP2;ratioP2;P2;SDS_P1;SDS_P2;PMS_P1;PMS_P2;Temp;Humidity;BMP_temperature;BMP_pressure;BME280_temperature;BME280_humidity;BME280_pressure;Samples;Min_cycle;Max_cycle;Signal;HPM_P1;HPM_P2
2022/12/02 00:01:13;;;;;;;;;;;10.90;94.90;;;;;;5006824;28;20126;-77
2022/12/02 00:03:39;;;;;;;25.90;24.90;;;10.90;94.90;;;;;;5007977;28;20354;-77
2022/12/02 00:06:09;;;;;;;24.85;23.85;;;10.90;94.90;;;;;;5006625;28;20064;-78
2022/12/02 00:08:36;;;;;;;25.75;24.75;;;10.90;94.90;;;;;;5006386;28;20041;-78
2022/12/02 00:11:18;;;;;;;26.98;25.98;;;10.90;94.90;;;;;;5007633;28;20041;-78
2022/12/02 00:13:44;;;;;;;30.30;29.13;;;10.90;94.90;;;;;;5007761;28;20072;-75
2022/12/02 00:16:19;;;;;;;27.25;26.20;;;10.90;94.90;;;;;;5007800;28;20054;-79
2022/12/02 00:18:45;;;;;;;27.88;26.77;;;10.90;94.90;;;;;;5006231;28;20053;-78
2022/12/02 00:21:11;;;;;;;29.92;28.83;;;10.90;94.80;;;;;;5007617;28;20382;-78
2022/12/02 00:23:36;;;;;;;28.90;27.80;;;10.80;94.80;;;;;;5006276;28;20038;-78
2022/12/02 00:26:02;;;;;;;32.25;31.05;;;10.80;94.70;;;;;;5006368;28;20486;-79
2022/12/02 00:28:28;;;;;;;35.63;34.30;;;10.70;94.60;;;;;;5006326;28;20037;-79
2022/12/02 00:30:53;;;;;;;30.65;29.48;;;10.60;94.60;;;;;;5009409;28;20092;-78
2022/12/02 00:33:19;;;;;;;28.95;27.85;;;10.50;94.60;;;;;;5011303;28;20048;-77
2022/12/02 00:35:45;;;;;;;29.42;28.33;;;10.40;94.60;;;;;;5009924;28;20041;-77
2022/12/02 00:38:11;;;;;;;29.42;28.33;;;10.30;94.60;;;;;;5026448;28;20060;-76
2022/12/02 00:40:36;;;;;;;29.15;28.05;;;10.20;94.70;;;;;;5009849;28;20390;-76
2022/12/02 00:48:32;;;;;;;31.75;30.55;;;9.90;94.60;;;;;;5038417;28;20052;-78
2022/12/02 00:50:58;;;;;;;31.45;30.25;;;9.80;94.60;;;;;;5010959;28;20022;-78
2022/12/02 00:53:23;;;;;;;28.50;27.40;;;9.70;94.60;;;;;;5042600;28;20402;-75
2022/12/02 00:55:49;;;;;;;31.98;30.77;;;9.70;94.60;;;;;;5025984;28;20436;-77
2022/12/02 00:58:15;;;;;;;34.10;32.80;;;9.60;94.60;;;;;;5010961;28;20113;-77
2022/12/02 01:00:41;;;;;;;36.08;34.72;;;9.50;94.70;;;;;;5025821;28;20030;-78
2022/12/02 01:03:07;;;;;;;35.67;34.28;;;9.50;94.80;;;;;;5010851;28;20137;-77
2022/12/02 01:05:32;;;;;;;36.53;35.13;;;9.50;94.80;;;;;;5010676;28;20117;-78
2022/12/02 01:07:58;;;;;;;34.95;33.65;;;9.50;94.80;;;;;;5009634;28;20151;-78
2022/12/02 01:10:24;;;;;;;35.58;34.28;;;9.50;94.80;;;;;;5025896;28;20030;-75
2022/12/02 01:12:49;;;;;;;36.05;34.67;;;9.50;94.80;;;;;;5010804;28;20022;-77
2022/12/02 01:15:15;;;;;;;33.50;32.20;;;9.50;94.80;;;;;;5008858;28;20116;-77
2022/12/02 01:17:41;;;;;;;35.30;34.00;;;9.40;94.70;;;;;;5042699;28;20125;-78
2022/12/02 01:20:07;;;;;;;32.05;30.85;;;9.50;94.80;;;;;;5009361;28;20057;-79
2022/12/02 01:22:33;;;;;;;33.53;32.22;;;9.50;94.90;;;;;;5042037;28;20037;-79
2022/12/02 01:24:58;;;;;;;34.20;32.90;;;9.50;94.90;;;;;;5009348;28;20034;-79
2022/12/02 01:27:24;;;;;;;33.90;32.60;;;9.50;94.90;;;;;;5010463;28;20030;-79
2022/12/02 01:29:50;;;;;;;34.53;33.22;;;9.50;94.90;;;;;;5008987;28;20054;-79
2022/12/02 01:32:18;;;;;;;35.17;33.88;;;9.60;94.90;;;;;;5009100;28;20033;-79
2022/12/02 01:34:43;;;;;;;38.42;37.03;;;9.60;94.90;;;;;;5009306;28;20037;-78
2022/12/02 01:37:09;;;;;;;39.28;37.78;;;9.60;94.90;;;;;;5008783;28;20435;-78
2022/12/02 01:39:35;;;;;;;37.72;36.33;;;9.60;94.90;;;;;;5025417;28;20030;-78
2022/12/02 01:42:01;;;;;;;38.35;36.95;;;9.60;94.90;;;;;;5007470;28;20479;-79
2022/12/02 01:44:27;;;;;;;38.67;37.28;;;9.70;94.90;;;;;;5041885;28;20034;-79
2022/12/02 01:46:54;;;;;;;37.38;35.97;;;9.80;94.90;;;;;;5041900;28;20041;-80
2022/12/02 01:49:21;;;;;;;36.70;35.30;;;9.90;94.90;;;;;;5009681;28;20533;-76
2022/12/02 01:51:46;;;;;;;;;;;9.90;94.90;;;;;;5010317;28;20029;-79
2022/12/02 01:54:12;;;;;;;32.75;31.52;;;10.00;94.90;;;;;;5009997;28;19916;-79
2022/12/02 01:56:38;;;;;;;34.00;32.70;;;10.10;94.80;;;;;;5010221;28;20025;-79
2022/12/02 01:59:04;;;;;;;34.10;32.80;;;10.20;94.80;;;;;;5025059;28;20467;-76
2022/12/02 02:01:33;;;;;;;33.33;32.05;;;10.20;94.80;;;;;;5009783;28;20026;-76
2022/12/02 02:04:01;;;;;;;31.73;30.52;;;10.30;94.70;;;;;;5009704;28;20034;-76
2022/12/02 02:06:30;;;;;;;27.52;26.42;;;10.30;94.70;;;;;;5024915;28;20377;-78
2022/12/02 02:08:56;;;;;;;28.98;27.88;;;10.30;94.60;;;;;;5008478;28;20113;-76
2022/12/02 02:11:24;;;;;;;26.65;25.65;;;10.30;94.60;;;;;;5041165;28;20026;-76
2022/12/02 02:13:50;;;;;;;25.80;24.80;;;10.30;94.90;;;;;;5009354;28;20387;-76
2022/12/02 02:16:16;;;;;;;27.17;26.15;;;10.30;94.70;;;;;;5041109;28;20030;-79
2022/12/02 02:18:42;;;;;;;26.30;25.30;;;10.30;94.70;;;;;;5040976;28;20070;-79
2022/12/02 02:21:13;;;;;;;28.27;27.17;;;10.30;94.70;;;;;;5024876;28;20077;-79
2022/12/02 02:23:39;;;;;;;24.65;23.65;;;10.30;94.70;;;;;;5008202;28;20117;-79
2022/12/02 02:26:05;;;;;;;23.30;22.40;;;10.40;94.70;;;;;;5041232;28;20120;-79
2022/12/02 02:28:32;;;;;;;25.83;24.83;;;10.40;94.70;;;;;;5008006;28;20030;-78
2022/12/02 02:30:59;;;;;;;24.95;23.95;;;10.30;94.60;;;;;;5009111;28;20062;-78
2022/12/02 02:33:27;;;;;;;24.10;23.20;;;10.30;94.60;;;;;;5009251;28;20032;-76
2022/12/02 02:35:53;;;;;;;27.02;26.02;;;10.30;94.70;;;;;;5008231;28;20029;-79
2022/12/02 02:38:24;;;;;;;28.42;27.33;;;10.20;94.60;;;;;;5041047;28;20084;-76
2022/12/02 02:40:51;;;;;;;29.08;27.98;;;10.20;94.60;;;;;;5008869;28;20117;-76
2022/12/02 02:43:19;;;;;;;31.52;30.33;;;10.10;94.60;;;;;;5040471;28;20104;-77
2022/12/02 02:45:45;;;;;;;31.10;29.90;;;10.00;94.60;;;;;;5040627;28;20042;-78
2022/12/02 02:48:13;;;;;;;34.13;32.83;;;10.00;94.70;;;;;;5007519;28;20030;-78
2022/12/02 02:50:43;;;;;;;35.90;34.60;;;9.90;94.70;;;;;;5007587;28;20040;-78
2022/12/02 02:53:09;;;;;;;33.55;32.25;;;9.80;94.70;;;;;;5007266;28;20084;-79
2022/12/02 02:55:35;;;;;;;32.90;31.70;;;9.70;94.70;;;;;;5007668;28;20041;-79
2022/12/02 02:58:32;;;;;;;33.00;31.80;;;9.70;94.70;;;;;;5008890;28;20425;-79
2022/12/02 03:01:31;;;;;;;34.80;33.50;;;9.60;94.70;;;;;;5012422;28;20026;-77
2022/12/02 03:04:02;;;;;;;33.67;32.38;;;9.60;94.80;;;;;;5007172;28;20033;-79
2022/12/02 03:06:29;;;;;;;34.85;33.55;;;9.60;94.70;;;;;;5008682;28;20521;-78
2022/12/02 03:08:56;;;;;;;38.63;37.22;;;9.50;94.70;;;;;;5007216;28;20569;-76
2022/12/02 03:11:22;;;;;;;40.65;39.15;;;9.50;94.70;;;;;;5008489;28;20026;-78
2022/12/02 03:13:50;;;;;;;43.50;41.90;;;9.40;94.70;;;;;;5008815;28;20038;-79
2022/12/02 03:16:20;;;;;;;42.50;40.90;;;9.30;94.70;;;;;;5008396;28;20028;-78
2022/12/02 03:18:48;;;;;;;43.20;41.60;;;9.30;94.70;;;;;;5008503;28;20046;-76
2022/12/02 03:21:15;;;;;;;43.90;42.30;;;9.30;94.70;;;;;;5006909;28;20040;-75
2022/12/02 03:23:42;;;;;;;43.00;41.40;;;9.20;94.70;;;;;;5008429;28;20034;-78
2022/12/02 03:26:08;;;;;;;41.42;39.92;;;9.20;94.80;;;;;;5008584;28;20105;-78
2022/12/02 03:28:35;;;;;;;;;;;9.20;94.80;;;;;;5007499;28;20075;-78
2022/12/02 03:31:01;;;;;;;40.30;38.80;;;9.10;94.80;;;;;;5006920;28;19913;-77
2022/12/02 03:33:27;;;;;;;42.30;40.70;;;9.10;94.70;;;;;;5008412;28;20049;-78
2022/12/02 03:35:53;;;;;;;43.50;41.90;;;9.10;94.70;;;;;;5039569;28;20033;-78
2022/12/02 03:38:19;;;;;;;42.05;40.45;;;9.00;94.70;;;;;;5039913;28;20061;-78
2022/12/02 03:40:46;;;;;;;45.53;43.83;;;9.00;94.70;;;;;;5007887;28;20077;-78
2022/12/02 03:43:12;;;;;;;49.03;47.22;;;9.00;94.70;;;;;;5023337;28;20394;-76
2022/12/02 03:45:38;;;;;;;46.25;44.55;;;8.90;94.70;;;;;;5008301;28;20025;-76
2022/12/02 03:48:04;;;;;;;50.72;48.85;;;8.80;94.60;;;;;;5006792;28;20026;-76
2022/12/02 03:50:30;;;;;;;47.95;46.15;;;8.80;94.70;;;;;;5006623;28;20053;-76
2022/12/02 03:52:56;;;;;;;49.95;48.15;;;8.70;94.70;;;;;;5039930;28;20033;-74
2022/12/02 03:55:22;;;;;;;49.70;47.90;;;8.70;94.70;;;;;;5022932;28;20478;-74
2022/12/02 03:57:48;;;;;;;49.70;47.90;;;8.60;94.60;;;;;;5039506;28;20479;-78
2022/12/02 04:00:14;;;;;;;49.03;47.22;;;8.60;94.70;;;;;;5006874;28;20032;-78
2022/12/02 04:02:40;;;;;;;;;;;8.50;94.70;;;;;;5007109;28;20033;-78
2022/12/02 04:05:06;;;;;;;50.67;48.78;;;8.50;94.70;;;;;;5040503;28;20088;-76
2022/12/02 04:07:32;;;;;;;;;;;8.50;94.60;;;;;;5012213;28;20037;-74
2022/12/02 04:09:57;;;;;;;48.75;46.95;;;8.50;94.60;;;;;;5010611;28;19913;-74
2022/12/02 04:12:23;;;;;;;52.22;50.33;;;8.50;94.60;;;;;;5026915;28;20034;-76
2022/12/02 04:14:49;;;;;;;51.80;49.90;;;8.40;94.50;;;;;;5026805;28;20062;-76
2022/12/02 04:17:14;;;;;;;51.15;49.25;;;8.40;94.50;;;;;;5011444;28;20042;-76
2022/12/02 04:19:40;;;;;;;54.47;52.47;;;8.40;94.50;;;;;;5043248;28;20037;-76
2022/12/02 04:22:06;;;;;;;55.13;53.13;;;8.40;94.50;;;;;;5010206;28;20532;-76
2022/12/02 04:24:31;;;;;;;55.58;53.55;;;8.30;94.50;;;;;;5026664;28;20034;-76
2022/12/02 04:26:57;;;;;;;53.58;51.58;;;8.20;94.40;;;;;;5026525;28;20215;-76
2022/12/02 04:29:23;;;;;;;53.92;51.92;;;8.10;94.50;;;;;;5010445;28;20046;-77
2022/12/02 04:31:48;;;;;;;58.03;55.92;;;8.00;94.50;;;;;;5010288;28;20049;-77
2022/12/02 04:34:14;;;;;;;55.25;53.22;;;8.00;94.50;;;;;;5043120;28;20432;-78
2022/12/02 04:36:40;;;;;;;57.30;55.20;;;7.90;94.50;;;;;;5026820;28;20041;-77
2022/12/02 04:39:05;;;;;;;54.63;52.63;;;7.80;94.50;;;;;;5011612;28;20105;-77
2022/12/02 04:41:31;;;;;;;54.63;52.63;;;7.80;94.60;;;;;;5010511;28;20057;-77
2022/12/02 04:43:57;;;;;;;57.30;55.20;;;7.80;94.50;;;;;;5010055;28;20038;-77
2022/12/02 04:46:23;;;;;;;54.60;52.60;;;7.70;94.50;;;;;;5009921;28;20042;-76
2022/12/02 04:48:48;;;;;;;53.42;51.42;;;7.70;94.50;;;;;;5042756;28;20033;-76
2022/12/02 04:51:14;;;;;;;52.30;50.40;;;7.70;94.60;;;;;;5011284;28;20034;-76
2022/12/02 04:53:39;;;;;;;55.22;53.17;;;7.70;94.60;;;;;;5042696;28;20036;-76
2022/12/02 04:56:05;;;;;;;54.88;52.88;;;7.70;94.50;;;;;;5042767;28;20038;-76
2022/12/02 04:58:31;;;;;;;51.80;49.90;;;7.70;94.50;;;;;;5026209;28;20081;-76
2022/12/02 05:00:57;;;;;;;52.33;50.42;;;7.70;94.50;;;;;;5042447;28;20041;-76
2022/12/02 05:03:22;;;;;;;51.92;50.03;;;7.70;94.50;;;;;;5042545;28;20079;-76
2022/12/02 05:05:48;;;;;;;53.80;51.80;;;7.70;94.50;;;;;;5042256;28;20475;-75
2022/12/02 05:08:14;;;;;;;51.00;49.10;;;7.70;94.50;;;;;;5025839;28;20109;-76
2022/12/02 05:10:39;;;;;;;49.25;47.42;;;7.70;94.50;;;;;;5025856;28;20501;-76
2022/12/02 05:13:05;;;;;;;51.03;49.13;;;7.70;94.50;;;;;;5042404;28;20087;-76
2022/12/02 05:15:31;;;;;;;49.15;47.35;;;7.70;94.50;;;;;;5025795;28;20026;-76
2022/12/02 05:17:56;;;;;;;50.75;48.85;;;7.70;94.50;;;;;;5010465;28;20068;-76
2022/12/02 05:20:22;;;;;;;49.45;47.65;;;7.70;94.50;;;;;;5025744;28;20038;-77
2022/12/02 05:22:48;;;;;;;49.80;47.90;;;7.80;94.50;;;;;;5009372;28;20451;-77
2022/12/02 05:25:13;;;;;;;47.83;46.03;;;7.80;94.50;;;;;;5042316;28;20100;-77
2022/12/02 05:27:39;;;;;;;47.53;45.72;;;7.80;94.50;;;;;;5010578;28;20048;-77
2022/12/02 05:30:06;;;;;;;46.05;44.35;;;7.90;94.50;;;;;;5010379;28;20100;-77
2022/12/02 05:32:32;;;;;;;48.13;46.33;;;7.90;94.60;;;;;;5010384;28;20040;-77
2022/12/02 05:34:57;;;;;;;47.20;45.40;;;7.90;94.60;;;;;;5010900;28;20121;-77
2022/12/02 05:37:23;;;;;;;45.85;44.15;;;8.00;94.60;;;;;;5042165;28;20039;-77
2022/12/02 05:39:49;;;;;;;47.45;45.65;;;8.00;94.60;;;;;;5025265;28;20100;-76
2022/12/02 05:42:15;;;;;;;49.03;47.22;;;8.10;94.50;;;;;;5008657;28;20034;-76
2022/12/02 05:44:42;;;;;;;46.90;45.15;;;8.10;94.40;;;;;;5025184;28;20146;-76
2022/12/02 05:47:13;;;;;;;49.90;48.00;;;8.10;94.40;;;;;;5024995;28;20040;-76
2022/12/02 05:49:40;;;;;;;46.05;44.35;;;8.00;94.40;;;;;;5008711;28;20032;-77
2022/12/02 05:52:19;;;;;;;47.92;46.13;;;8.00;94.50;;;;;;5009847;28;20040;-76
2022/12/02 05:54:45;;;;;;;49.13;47.33;;;7.90;94.50;;;;;;5008421;28;20474;-76
2022/12/02 05:57:12;;;;;;;48.00;46.20;;;7.90;94.50;;;;;;5024718;28;20135;-76
2022/12/02 05:59:37;;;;;;;46.60;44.90;;;7.90;94.60;;;;;;5041469;28;20371;-76
2022/12/02 06:02:22;;;;;;;48.13;46.33;;;7.90;94.60;;;;;;5025520;28;20025;-76
2022/12/02 06:04:47;;;;;;;46.53;44.83;;;8.00;94.70;;;;;;5008570;28;20308;-76
2022/12/02 06:07:13;;;;;;;45.88;44.17;;;8.10;94.70;;;;;;5009897;28;20033;-78
2022/12/02 06:09:39;;;;;;;49.95;48.08;;;8.10;94.70;;;;;;5009864;28;20092;-77
2022/12/02 06:12:16;;;;;;;49.97;48.08;;;8.20;94.60;;;;;;5009627;28;20061;-77
2022/12/02 06:14:53;;;;;;;50.97;49.08;;;8.20;94.60;;;;;;5009691;28;20021;-77
2022/12/02 06:17:19;;;;;;;;;;;8.20;94.70;;;;;;5008265;28;20070;-77
2022/12/02 06:19:52;;;;;;;52.53;50.55;;;8.30;94.70;;;;;;5041185;28;19921;-77
2022/12/02 06:22:27;;;;;;;49.67;47.83;;;8.30;94.70;;;;;;5008164;28;20030;-77
2022/12/02 06:24:56;;;;;;;48.97;47.17;;;8.40;94.70;;;;;;5007904;28;20029;-76
2022/12/02 06:27:24;;;;;;;45.45;43.75;;;8.50;94.70;;;;;;5008756;28;20034;-76
2022/12/02 06:30:03;;;;;;;47.95;46.15;;;8.50;94.70;;;;;;5007605;28;20379;-76
2022/12/02 06:32:54;;;;;;;45.45;43.75;;;8.50;94.70;;;;;;5008901;28;20547;-76
2022/12/02 06:35:27;;;;;;;46.17;44.47;;;8.50;94.70;;;;;;5007696;28;20034;-76
2022/12/02 06:37:56;;;;;;;47.25;45.47;;;8.60;94.70;;;;;;5009223;28;20498;-75
2022/12/02 06:40:35;;;;;;;48.65;46.85;;;8.60;94.60;;;;;;5007687;28;20080;-74
2022/12/02 06:43:09;;;;;;;48.78;46.97;;;8.60;94.60;;;;;;5040328;28;20018;-77
2022/12/02 06:45:35;;;;;;;53.08;51.08;;;8.60;94.50;;;;;;5009305;28;20025;-77
2022/12/02 06:48:02;;;;;;;52.70;50.70;;;8.50;94.50;;;;;;5040609;28;20042;-77
2022/12/02 06:50:36;;;;;;;50.40;48.50;;;8.50;94.50;;;;;;5007206;28;20113;-77
2022/12/02 06:53:19;;;;;;;50.10;48.20;;;8.50;94.60;;;;;;5008785;28;20032;-77
2022/12/02 06:55:45;;;;;;;48.88;47.08;;;8.40;94.60;;;;;;5008488;28;20026;-77
2022/12/02 06:58:38;;;;;;;48.47;46.67;;;8.40;94.70;;;;;;5039701;28;20018;-77
2022/12/02 07:01:18;;;;;;;47.88;46.08;;;8.50;94.70;;;;;;5007433;28;20069;-78
2022/12/02 07:03:52;;;;;;;46.58;44.83;;;8.50;94.90;;;;;;5008327;28;20018;-78
2022/12/02 07:06:20;;;;;;;46.80;45.00;;;8.50;94.80;;;;;;5008456;28;20076;-78
2022/12/02 07:08:47;;;;;;;45.55;43.85;;;8.50;94.70;;;;;;5010668;28;20041;-78
2022/12/02 07:11:48;;;;;;;49.65;47.75;;;8.50;94.70;;;;;;5023960;28;20026;-77
2022/12/02 07:14:46;;;;;;;54.88;52.78;;;8.60;94.80;;;;;;5008166;28;20509;-77
2022/12/02 07:17:23;;;;;;;52.65;50.65;;;8.60;94.70;;;;;;5006257;28;20470;-77
2022/12/02 07:20:10;;;;;;;52.70;50.70;;;8.60;94.70;;;;;;5006888;28;20061;-78
2022/12/02 07:22:44;;;;;;;53.42;51.42;;;8.60;94.70;;;;;;5006989;28;20026;-77
2022/12/02 07:25:16;;;;;;;52.33;50.33;;;8.70;94.70;;;;;;5008191;28;20504;-74
2022/12/02 07:27:47;;;;;;;53.30;51.30;;;8.70;94.70;;;;;;5007145;28;20065;-77
2022/12/02 07:30:28;;;;;;;53.30;51.30;;;8.70;94.70;;;;;;5008233;28;20030;-75
2022/12/02 07:32:54;;;;;;;55.72;53.63;;;8.70;94.70;;;;;;5008380;28;20033;-75
2022/12/02 07:35:20;;;;;;;53.00;51.00;;;8.70;94.60;;;;;;5040553;28;20485;-74
2022/12/02 07:37:46;;;;;;;;;;;8.70;94.60;;;;;;5007749;28;20136;-74
2022/12/02 07:40:15;;;;;;;53.03;51.03;;;8.80;94.70;;;;;;5006614;28;20008;-75
2022/12/02 07:42:42;;;;;;;54.47;52.45;;;8.80;94.60;;;;;;5006713;28;20336;-75
2022/12/02 07:45:09;;;;;;;54.20;52.20;;;8.80;94.60;;;;;;5006390;28;20422;-77
2022/12/02 07:47:35;;;;;;;57.17;54.97;;;8.80;94.60;;;;;;5007688;28;20124;-77
2022/12/02 07:50:01;;;;;;;55.17;53.10;;;8.80;94.60;;;;;;5039381;28;20112;-76
2022/12/02 07:52:26;;;;;;;55.17;53.08;;;8.70;94.60;;;;;;5007733;28;20080;-76
2022/12/02 07:54:53;;;;;;;55.30;53.20;;;8.80;94.60;;;;;;5039280;28;20096;-76
2022/12/02 07:57:20;;;;;;;53.13;51.13;;;8.80;94.60;;;;;;5022538;28;20105;-75
2022/12/02 07:59:45;;;;;;;53.88;51.88;;;8.80;94.60;;;;;;5005779;28;20394;-77
2022/12/02 08:02:11;;;;;;;53.38;51.38;;;8.80;94.60;;;;;;5007960;28;20029;-78
2022/12/02 08:04:37;;;;;;;51.90;49.95;;;8.80;94.60;;;;;;5007773;28;20398;-78
2022/12/02 08:07:03;;;;;;;52.75;50.75;;;8.80;94.60;;;;;;5007532;28;20029;-77
2022/12/02 08:09:29;;;;;;;53.05;51.05;;;8.90;94.60;;;;;;5006392;28;20026;-79
2022/12/02 08:11:55;;;;;;;56.25;54.15;;;8.90;94.60;;;;;;5006411;28;20096;-78
2022/12/02 08:14:21;;;;;;;54.42;52.42;;;8.90;94.50;;;;;;5006047;28;20483;-78
2022/12/02 08:16:46;;;;;;;54.22;52.22;;;8.90;94.50;;;;;;5006122;28;20033;-76
2022/12/02 08:19:12;;;;;;;55.22;53.13;;;8.80;94.50;;;;;;5007298;28;20058;-76
2022/12/02 08:21:39;;;;;;;51.70;49.80;;;8.80;94.50;;;;;;5005823;28;20057;-76
2022/12/02 08:24:06;;;;;;;51.55;49.55;;;8.80;94.60;;;;;;5038532;28;20030;-74
2022/12/02 08:26:32;;;;;;;51.95;49.95;;;8.80;94.60;;;;;;5022418;28;20069;-74
2022/12/02 08:28:58;;;;;;;50.92;49.03;;;8.80;94.60;;;;;;5005792;28;20029;-73
2022/12/02 08:31:23;;;;;;;51.70;49.80;;;8.90;94.60;;;;;;5005863;28;20038;-76
2022/12/02 08:33:50;;;;;;;53.17;51.17;;;8.80;94.50;;;;;;5038670;28;20040;-76
2022/12/02 08:36:16;;;;;;;57.17;55.08;;;8.80;94.50;;;;;;5006734;28;20443;-76
2022/12/02 08:38:42;;;;;;;58.53;56.33;;;8.70;94.50;;;;;;5007224;28;20041;-76
2022/12/02 08:41:08;;;;;;;56.63;54.47;;;8.70;94.50;;;;;;5006701;28;20031;-78
2022/12/02 08:43:34;;;;;;;54.45;52.35;;;8.60;94.50;;;;;;5038700;28;20034;-78
2022/12/02 08:45:59;;;;;;;55.67;53.58;;;8.60;94.50;;;;;;5022141;28;20074;-77
2022/12/02 08:48:25;;;;;;;53.90;51.80;;;8.50;94.60;;;;;;5006988;28;20057;-77
2022/12/02 08:50:51;;;;;;;54.40;52.30;;;8.50;94.60;;;;;;5038432;28;20038;-77
2022/12/02 08:53:17;;;;;;;53.25;51.15;;;8.50;94.60;;;;;;5025541;28;20034;-78
2022/12/02 08:55:42;;;;;;;58.13;55.92;;;8.50;94.60;;;;;;5010531;28;20441;-77
2022/12/02 08:58:08;;;;;;;61.65;59.35;;;8.50;94.60;;;;;;5010361;28;20474;-79
2022/12/02 09:00:34;;;;;;;52.90;50.80;;;8.40;94.60;;;;;;5010391;28;20026;-79
2022/12/02 09:03:00;;;;;;;54.17;52.17;;;8.40;94.80;;;;;;5009814;28;20026;-79
2022/12/02 09:05:26;;;;;;;51.28;49.28;;;8.50;94.80;;;;;;5009928;28;20118;-79
2022/12/02 09:07:52;;;;;;;52.60;50.60;;;8.50;94.80;;;;;;5017015;28;20097;-77
2022/12/02 09:10:18;;;;;;;47.13;45.33;;;8.50;94.80;;;;;;5036573;28;20152;-77
2022/12/02 09:12:43;;;;;;;44.83;43.13;;;8.60;95.00;;;;;;5032029;28;20027;-74
2022/12/02 09:15:09;;;;;;;38.67;37.17;;;8.80;95.30;;;;;;5051971;28;20034;-75
2022/12/02 09:17:35;;;;;;;36.38;34.97;;;9.00;95.30;;;;;;5022773;28;20048;-75
2022/12/02 09:20:02;;;;;;;35.78;34.45;;;9.20;95.30;;;;;;5018847;28;20038;-76
2022/12/02 09:22:28;;;;;;;36.38;34.97;;;9.40;95.30;;;;;;5029100;28;20415;-80
2022/12/02 09:24:54;;;;;;;32.78;31.58;;;9.60;95.50;;;;;;5029744;28;20025;-77
2022/12/02 09:27:23;;;;;;;27.58;26.48;;;9.90;95.60;;;;;;5035783;28;20029;-77
2022/12/02 09:29:48;;;;;;;25.85;24.85;;;10.30;95.70;;;;;;5029038;28;20055;-76
2022/12/02 09:32:14;;;;;;;21.02;20.23;;;10.70;95.60;;;;;;5029611;28;20041;-74
2022/12/02 09:34:40;;;;;;;23.40;22.50;;;10.90;95.40;;;;;;5029053;28;20029;-78
2022/12/02 09:37:06;;;;;;;16.95;16.25;;;11.10;95.50;;;;;;5054322;28;20029;-78
2022/12/02 09:39:31;;;;;;;16.00;15.30;;;11.40;95.60;;;;;;5052316;28;20014;-74
2022/12/02 09:41:57;;;;;;;17.00;16.30;;;11.60;95.60;;;;;;5001819;28;20036;-75
2022/12/02 09:44:24;;;;;;;16.20;15.50;;;11.80;95.70;;;;;;5017481;28;20041;-77
2022/12/02 09:46:50;;;;;;;9.43;8.95;;;12.10;96.00;;;;;;5020041;28;20037;-78
2022/12/02 09:49:16;;;;;;;11.15;10.65;;;12.60;96.30;;;;;;5018954;28;20030;-78
2022/12/02 09:51:41;;;;;;;10.57;10.07;;;13.20;96.40;;;;;;5019517;28;20117;-80
2022/12/02 09:54:13;;;;;;;5.90;5.60;;;13.60;96.10;;;;;;5020851;28;20112;-80
2022/12/02 09:56:40;;;;;;;4.40;4.10;;;13.90;96.30;;;;;;5001284;28;20026;-78
2022/12/02 09:59:13;;;;;;;3.13;2.92;;;14.30;96.40;;;;;;5019612;28;20033;-77
2022/12/02 10:01:41;;;;;;;0.90;0.90;;;14.70;96.60;;;;;;5019217;28;20060;-80
2022/12/02 10:04:09;;;;;;;0.45;0.45;;;14.90;96.70;;;;;;5018772;28;20084;-78
2022/12/02 10:06:35;;;;;;;0.50;0.50;;;15.20;96.90;;;;;;5025793;28;20038;-77
2022/12/02 10:09:00;;;;;;;0.20;0.20;;;15.60;96.80;;;;;;5020712;28;20047;-79
2022/12/02 10:11:31;;;;;;;0.20;0.20;;;15.80;96.60;;;;;;5019685;28;20064;-80
2022/12/02 10:13:58;;;;;;;0.10;0.10;;;16.00;96.90;;;;;;5014612;28;20540;-80
2022/12/02 10:16:26;;;;;;;0.03;0.03;;;16.30;97.00;;;;;;4995660;28;20030;-77
2022/12/02 10:18:59;;;;;;;0.10;0.10;;;16.70;97.00;;;;;;5010791;28;20042;-76
2022/12/02 10:21:25;;;;;;;0.00;0.00;;;17.00;96.90;;;;;;5042303;28;20026;-76
2022/12/02 10:23:54;;;;;;;0.00;0.00;;;17.30;97.00;;;;;;5009555;28;20033;-78
2022/12/02 10:26:22;;;;;;;0.00;0.00;;;17.50;96.90;;;;;;5009616;28;20054;-78
2022/12/02 10:29:13;;;;;;;0.00;0.00;;;17.70;96.90;;;;;;5009499;28;20034;-79
2022/12/02 10:31:55;;;;;;;0.00;0.00;;;17.80;97.10;;;;;;5015921;28;20030;-78
2022/12/02 10:34:22;;;;;;;0.00;0.00;;;17.80;97.20;;;;;;5009086;28;20112;-79
2022/12/02 10:36:48;;;;;;;0.00;0.00;;;18.10;97.40;;;;;;5009469;28;20193;-79
2022/12/02 10:39:20;;;;;;;0.00;0.00;;;18.40;97.70;;;;;;5009264;28;20053;-78
2022/12/02 10:41:50;;;;;;;0.00;0.00;;;18.90;97.80;;;;;;5028347;28;20474;-81
2022/12/02 10:44:18;;;;;;;0.00;0.00;;;19.40;97.50;;;;;;5013596;28;20101;-78
2022/12/02 10:46:44;;;;;;;0.00;0.00;;;19.80;97.30;;;;;;5019404;28;20026;-78
2022/12/02 10:49:27;;;;;;;0.00;0.00;;;19.90;96.90;;;;;;5011148;28;20022;-78
2022/12/02 10:51:54;;;;;;;0.00;0.00;;;20.00;97.10;;;;;;5027253;28;20076;-79
2022/12/02 10:54:28;;;;;;;0.00;0.00;;;20.10;97.20;;;;;;5028280;28;20029;-78
2022/12/02 10:56:55;;;;;;;0.00;0.00;;;20.20;97.20;;;;;;5029910;28;20105;-76
2022/12/02 10:59:23;;;;;;;0.00;0.00;;;20.10;97.10;;;;;;5029929;28;20429;-78
2022/12/02 11:01:48;;;;;;;0.08;0.05;;;20.00;97.00;;;;;;5029796;28;20022;-73
2022/12/02 11:04:15;;;;;;;;;;;19.70;97.10;;;;;;5030168;28;20092;-77
2022/12/02 11:06:44;;;;;;;0.00;0.00;;;19.60;97.10;;;;;;5029544;28;19905;-76
2022/12/02 11:09:20;;;;;;;0.00;0.00;;;19.50;97.40;;;;;;5030383;28;20040;-76
2022/12/02 11:11:47;;;;;;;0.00;0.00;;;19.40;97.30;;;;;;5030610;28;20355;-76
2022/12/02 11:14:33;;;;;;;0.00;0.00;;;19.40;97.60;;;;;;5028348;28;20026;-76
2022/12/02 11:17:12;;;;;;;0.00;0.00;;;19.50;97.50;;;;;;5029745;28;20419;-75
2022/12/02 11:19:39;;;;;;;0.00;0.00;;;19.30;97.30;;;;;;5029103;28;20049;-74
2022/12/02 11:22:43;;;;;;;0.05;0.03;;;19.40;97.70;;;;;;5029771;28;20060;-74
2022/12/02 11:25:46;;;;;;;0.00;0.00;;;19.70;97.70;;;;;;5029266;28;20473;-76
2022/12/02 11:28:27;;;;;;;0.00;0.00;;;19.60;97.00;;;;;;5029048;28;20036;-76
2022/12/02 11:31:17;;;;;;;0.00;0.00;;;19.10;96.50;;;;;;5027887;28;20021;-75
2022/12/02 11:33:42;;;;;;;0.00;0.00;;;18.50;96.40;;;;;;5029108;28;20025;-77
2022/12/02 11:36:08;;;;;;;;;;;18.00;96.40;;;;;;5030038;28;20099;-75
2022/12/02 11:38:49;;;;;;;0.00;0.00;;;17.60;96.70;;;;;;5061402;28;19956;-75
2022/12/02 11:41:16;;;;;;;0.00;0.00;;;17.10;96.70;;;;;;5029289;28;20541;-74
2022/12/02 11:43:45;;;;;;;0.00;0.00;;;16.90;97.00;;;;;;5027669;28;20039;-75
2022/12/02 11:46:14;;;;;;;0.00;0.00;;;16.80;97.50;;;;;;5027559;28;20171;-74
2022/12/02 11:48:52;;;;;;;0.00;0.00;;;17.10;98.00;;;;;;5029308;28;20029;-75
2022/12/02 11:51:32;;;;;;;0.00;0.00;;;17.40;98.10;;;;;;5029489;28;20025;-72
2022/12/02 11:53:59;;;;;;;0.00;0.00;;;17.70;98.20;;;;;;5027642;28;20029;-77
2022/12/02 11:56:31;;;;;;;0.00;0.00;;;18.00;98.30;;;;;;5029487;28;20101;-78
2022/12/02 11:58:57;;;;;;;0.00;0.00;;;18.40;98.40;;;;;;5023355;28;20022;-75
2022/12/02 12:01:23;;;;;;;;;;;18.90;98.20;;;;;;5025878;28;20524;-75
2022/12/02 12:03:50;;;;;;;0.00;0.00;;;19.20;97.90;;;;;;5009721;28;19913;-76
2022/12/02 12:06:25;;;;;;;0.00;0.00;;;19.20;97.60;;;;;;5007757;28;20090;-75
2022/12/02 12:08:54;;;;;;;0.00;0.00;;;19.10;97.70;;;;;;5019763;28;20021;-77
2022/12/02 12:11:23;;;;;;;0.00;0.00;;;19.10;97.70;;;;;;5026769;28;20026;-75
2022/12/02 12:14:11;;;;;;;0.00;0.00;;;19.00;97.70;;;;;;5025586;28;20032;-75
2022/12/02 12:16:42;;;;;;;0.00;0.00;;;18.80;97.70;;;;;;5024711;28;20105;-74
2022/12/02 12:19:11;;;;;;;0.10;0.00;;;18.70;97.40;;;;;;5022707;28;20041;-75
2022/12/02 12:21:51;;;;;;;0.00;0.00;;;18.40;96.80;;;;;;5012941;28;20621;-76
2022/12/02 12:24:20;;;;;;;0.00;0.00;;;17.90;96.40;;;;;;5025103;28;20654;-76
2022/12/02 12:27:10;;;;;;;0.00;0.00;;;17.40;96.40;;;;;;5025440;28;20366;-77
2022/12/02 12:29:38;;;;;;;0.00;0.00;;;17.00;96.30;;;;;;5025536;28;20033;-77
2022/12/02 12:32:05;;;;;;;0.00;0.00;;;16.70;96.20;;;;;;5031576;28;20039;-76
2022/12/02 12:34:32;;;;;;;0.00;0.00;;;16.30;96.20;;;;;;5030256;28;20461;-75
2022/12/02 12:36:58;;;;;;;;;;;16.00;96.20;;;;;;5032036;28;20505;-76
2022/12/02 12:39:23;;;;;;;0.00;0.00;;;15.80;96.20;;;;;;5032091;28;19905;-76
2022/12/02 12:41:49;;;;;;;0.00;0.00;;;15.60;96.20;;;;;;5031938;28;20026;-76
2022/12/02 12:44:14;;;;;;;0.00;0.00;;;15.50;96.20;;;;;;5030833;28;20061;-76
2022/12/02 12:46:41;;;;;;;0.00;0.00;;;15.30;96.10;;;;;;5030944;28;20037;-76
2022/12/02 12:49:06;;;;;;;0.00;0.00;;;15.20;96.10;;;;;;5032060;28;20041;-76
2022/12/02 12:51:32;;;;;;;0.00;0.00;;;15.20;96.10;;;;;;5014305;28;20053;-77
2022/12/02 12:53:58;;;;;;;0.00;0.00;;;15.10;96.10;;;;;;5031937;28;20034;-76